Time,TemperatureF,DewpointF,PressureIn,WindDirection,WindDirectionDegrees,WindSpeedMPH,WindSpeedGustMPH,Humidity,HourlyPrecipIn,Conditions,Clouds,dailyrainin,SoftwareType,DateUTC
2013-02-04 01:13:00,26.4,17.3,29.97,SE,134,2.0,4.0,68,0.00,,---,0.00,VWS V12.07,2013-02-04 07:13:00,
2013-02-04 01:23:00,26.4,17.3,29.97,SE,146,1.0,5.0,68,0.00,,---,0.00,VWS V12.07,2013-02-04 07:23:00,
2013-02-04 01:33:00,26.5,17.7,29.96,SSW,209,1.0,3.0,69,0.00,,---,0.00,VWS V12.07,2013-02-04 07:33:00,
2013-02-04 01:43:00,26.6,17.8,29.96,SSE,158,3.0,5.0,69,0.00,,---,0.00,VWS V12.07,2013-02-04 07:43:00,
2013-02-04 01:53:00,26.7,17.9,29.95,South,180,1.0,5.0,69,0.00,,---,0.00,VWS V12.07,2013-02-04 07:53:00,
2013-02-04 02:03:00,27.0,18.2,29.95,SE,139,3.0,5.0,69,0.00,,---,0.00,VWS V12.07,2013-02-04 08:03:00,
2013-02-04 02:13:00,27.3,18.1,29.95,SSE,155,4.0,5.0,68,0.00,,---,0.00,VWS V12.07,2013-02-04 08:13:00,
2013-02-04 02:23:00,27.5,18.7,29.94,SE,145,2.0,5.0,69,0.00,,---,0.00,VWS V12.07,2013-02-04 08:23:00,
2013-02-04 02:33:00,27.5,18.7,29.94,SSE,153,2.0,5.0,69,0.00,,---,0.00,VWS V12.07,2013-02-04 08:33:00,
2013-02-04 02:43:00,27.6,18.8,29.93,SSE,148,0.0,5.0,69,0.00,,---,0.00,VWS V12.07,2013-02-04 08:43:00,
2013-02-04 02:53:00,27.6,18.8,29.93,SE,134,2.0,5.0,69,0.00,,---,0.00,VWS V12.07,2013-02-04 08:53:00,
2013-02-04 03:03:00,27.6,19.1,29.92,SSE,147,1.0,3.0,70,0.00,,---,0.00,VWS V12.07,2013-02-04 09:03:00,
2013-02-04 03:13:00,27.6,19.1,29.92,SE,139,1.0,5.0,70,0.00,,---,0.00,VWS V12.07,2013-02-04 09:13:00,
2013-02-04 03:23:00,27.7,19.2,29.92,SE,143,2.0,5.0,70,0.00,,---,0.00,VWS V12.07,2013-02-04 09:23:00,
2013-02-04 03:53:00,28.9,20.4,29.90,SSE,164,3.0,5.0,70,0.00,,---,0.00,VWS V12.07,2013-02-04 09:53:00,
2013-02-04 04:03:00,29.3,20.7,29.90,SSE,155,1.0,4.0,70,0.00,,---,0.00,VWS V12.07,2013-02-04 10:03:00,
2013-02-04 04:23:00,29.8,21.2,29.90,SE,139,1.0,4.0,70,0.00,,---,0.00,VWS V12.07,2013-02-04 10:23:00,
2013-02-04 04:33:00,30.0,21.4,29.89,ESE,113,0.0,3.0,70,0.00,,---,0.00,VWS V12.07,2013-02-04 10:33:00,
2013-02-04 05:13:00,30.4,21.8,29.90,East,81,0.0,0.0,70,0.00,,---,0.00,VWS V12.07,2013-02-04 11:13:00,
2013-02-04 05:33:00,30.6,22.0,29.90,East,80,0.0,0.0,70,0.00,,---,0.00,VWS V12.07,2013-02-04 11:33:00,
2013-02-04 05:53:00,30.8,22.9,29.89,West,271,0.0,3.0,72,0.00,,---,0.00,VWS V12.07,2013-02-04 11:53:00,
2013-02-04 06:23:00,30.0,22.7,29.88,SSW,211,0.0,4.0,74,0.00,,---,0.00,VWS V12.07,2013-02-04 12:23:00,
2013-02-04 06:33:00,30.0,22.4,29.87,SSE,166,0.0,3.0,73,0.00,,---,0.00,VWS V12.07,2013-02-04 12:33:00,
2013-02-04 06:53:00,29.8,22.5,29.87,SSE,166,0.0,3.0,74,0.00,,---,0.00,VWS V12.07,2013-02-04 12:53:00,
2013-02-04 07:13:00,29.3,22.4,29.86,South,179,0.0,2.0,75,0.00,,---,0.00,VWS V12.07,2013-02-04 13:13:00,
2013-02-04 07:23:00,29.2,22.6,29.86,SSE,158,0.0,2.0,76,0.00,,---,0.00,VWS V12.07,2013-02-04 13:23:00,
2013-02-04 07:53:00,30.2,23.2,29.86,SW,225,0.0,2.0,75,0.00,,---,0.00,VWS V12.07,2013-02-04 13:53:00,
2013-02-04 08:03:00,30.8,23.8,29.86,SSE,160,0.0,1.0,75,0.00,,---,0.00,VWS V12.07,2013-02-04 14:03:00,
2013-02-04 08:23:00,33.2,24.8,29.86,WSW,240,2.0,6.0,71,0.00,,---,0.00,VWS V12.07,2013-02-04 14:23:00,
2013-02-04 08:33:00,34.5,25.7,29.87,SSW,200,1.0,3.0,70,0.00,,---,0.00,VWS V12.07,2013-02-04 14:33:00,
2013-02-04 09:23:00,39.4,27.9,29.87,West,278,0.0,6.0,63,0.00,,---,0.00,VWS V12.07,2013-02-04 15:23:00,
2013-02-04 09:33:00,40.0,28.0,29.87,SSE,149,0.0,4.0,62,0.00,,---,0.00,VWS V12.07,2013-02-04 15:33:00,
2013-02-04 09:43:00,40.6,28.2,29.88,NW,305,0.0,4.0,61,0.00,,---,0.00,VWS V12.07,2013-02-04 15:43:00,
2013-02-04 10:23:00,41.7,29.3,29.88,WNW,293,5.0,11.0,61,0.00,,---,0.00,VWS V12.07,2013-02-04 16:23:00,
2013-02-04 10:43:00,42.3,29.8,29.89,NNE,23,3.0,14.0,61,0.01,,---,0.01,VWS V12.07,2013-02-04 16:43:00,
2013-02-04 10:53:00,42.3,30.2,29.89,NNE,13,4.0,14.0,62,0.01,,---,0.01,VWS V12.07,2013-02-04 16:53:00,
2013-02-04 11:43:00,43.0,31.3,29.90,NW,311,4.0,11.0,63,0.01,,---,0.01,VWS V12.07,2013-02-04 17:43:00,
2013-02-04 16:04:00,34.0,26.3,29.97,NNW,345,1.0,14.0,73,0.00,,---,0.01,VWS V12.07,2013-02-04 22:04:00,
2013-02-04 16:35:00,32.5,25.8,29.99,ENE,78,6.0,10.0,76,0.00,,---,0.01,VWS V12.07,2013-02-04 22:35:00,
2013-02-04 16:44:00,32.3,25.6,29.99,NNE,25,0.0,11.0,76,0.00,,---,0.01,VWS V12.07,2013-02-04 22:44:00,
2013-02-04 18:15:00,29.0,23.9,30.00,NE,53,4.0,12.0,81,0.00,,---,0.01,VWS V12.07,2013-02-05 00:15:00,
2013-02-04 19:14:00,27.4,22.6,30.02,East,89,5.0,10.0,82,0.00,,---,0.01,VWS V12.07,2013-02-05 01:14:00,
2013-02-04 20:04:00,27.0,22.5,30.03,NE,50,1.0,5.0,83,0.00,,---,0.01,VWS V12.07,2013-02-05 02:04:00,
2013-02-04 20:24:00,27.0,22.2,30.04,ENE,63,1.0,7.0,82,0.00,,---,0.01,VWS V12.07,2013-02-05 02:24:00,
2013-02-04 20:59:00,26.8,22.0,30.04,NNE,13,0.0,4.0,82,0.00,,---,0.01,VWS V12.07,2013-02-05 02:59:00,
2013-02-04 21:05:00,26.9,22.1,30.04,NNW,327,0.0,2.0,82,0.00,,---,0.01,VWS V12.07,2013-02-05 03:05:00,
2013-02-04 21:54:00,26.3,21.9,30.04,NNE,18,0.0,2.0,83,0.00,,---,0.01,VWS V12.07,2013-02-05 03:54:00,
2013-02-04 22:54:00,25.8,21.9,30.04,SE,139,0.0,1.0,85,0.00,,---,0.01,VWS V12.07,2013-02-05 04:54:00,